createdAt,value
2022-08-22T00:01:02.962Z,20.29
2022-08-22T00:02:47.465Z,22.56
2022-08-22T00:02:59.391Z,20.23
2022-08-22T00:03:10.387Z,20.23
2022-08-22T00:04:11.263Z,20.34
2022-08-22T00:06:45.919Z,20.49
2022-08-22T00:09:23.106Z,20.46
2022-08-22T00:11:56.014Z,20.47
2022-08-22T00:14:31.682Z,20.50
2022-08-22T00:17:17.185Z,20.58
2022-08-22T00:19:48.250Z,20.67
2022-08-22T00:22:24.361Z,20.72
2022-08-22T00:24:55.617Z,20.87
2022-08-22T00:27:25.649Z,20.91
2022-08-22T00:30:24.586Z,20.87
2022-08-22T00:32:56.805Z,20.91
2022-08-22T00:35:32.860Z,20.93
2022-08-22T00:37:59.996Z,20.87
2022-08-22T00:40:36.255Z,20.86
2022-08-22T00:43:08.712Z,20.80
2022-08-22T00:45:35.220Z,20.79
2022-08-22T00:48:04.737Z,20.95
2022-08-22T00:50:51.350Z,21.04
2022-08-22T00:53:30.895Z,20.95
2022-08-22T00:56:16.084Z,20.96
2022-08-22T00:58:42.581Z,20.96
2022-08-22T01:01:11.738Z,20.90
2022-08-22T01:03:44.238Z,20.87
2022-08-22T01:06:10.673Z,20.80
2022-08-22T01:08:42.295Z,20.97
2022-08-22T01:11:27.806Z,20.70
2022-08-22T01:14:04.390Z,20.68
2022-08-22T01:16:49.470Z,20.76
2022-08-22T01:19:48.905Z,20.71
2022-08-22T01:22:33.929Z,20.67
2022-08-22T01:25:26.150Z,20.61
2022-08-22T01:28:11.501Z,20.91
2022-08-22T01:30:46.979Z,20.35
2022-08-22T01:33:19.523Z,20.49
2022-08-22T01:35:59.719Z,20.46
2022-08-22T01:38:41.682Z,20.25
2022-08-22T01:41:28.853Z,20.21
2022-08-22T01:44:06.046Z,20.20
2022-08-22T01:46:47.626Z,20.31
2022-08-22T01:49:32.993Z,20.33
2022-08-22T01:52:08.385Z,20.37
2022-08-22T01:54:34.905Z,20.31
2022-08-22T01:57:02.889Z,20.14
2022-08-22T01:59:35.244Z,20.15
2022-08-22T02:02:14.563Z,20.19
2022-08-22T02:05:02.313Z,20.00
2022-08-22T02:07:48.103Z,20.11
2022-08-22T02:10:19.577Z,20.36
2022-08-22T02:12:56.896Z,20.01
2022-08-22T02:15:30.493Z,19.97
2022-08-22T02:18:01.071Z,19.88
2022-08-22T02:20:48.029Z,19.82
2022-08-22T02:23:17.265Z,19.68
2022-08-22T02:25:49.810Z,19.94
2022-08-22T02:28:22.316Z,19.68
2022-08-22T02:30:52.215Z,19.91
2022-08-22T02:33:26.746Z,19.92
2022-08-22T02:35:56.648Z,20.02
2022-08-22T02:38:32.533Z,20.05
2022-08-22T02:41:02.709Z,20.10
2022-08-22T02:43:35.893Z,20.01
2022-08-22T02:46:11.851Z,20.08
2022-08-22T02:48:48.010Z,20.06
2022-08-22T02:51:24.302Z,20.03
2022-08-22T02:53:56.646Z,19.95
2022-08-22T02:56:33.262Z,20.07
2022-08-22T02:59:02.971Z,20.07
2022-08-22T03:01:32.116Z,20.08
2022-08-22T03:04:15.338Z,20.06
2022-08-22T03:07:00.106Z,19.87
2022-08-22T03:09:32.505Z,20.01
2022-08-22T03:12:08.425Z,20.12
2022-08-22T03:14:54.969Z,20.00
2022-08-22T03:17:44.424Z,20.01
2022-08-22T03:20:13.781Z,19.73
2022-08-22T03:23:00.047Z,19.73
2022-08-22T03:25:49.191Z,19.78
2022-08-22T03:28:20.318Z,19.69
2022-08-22T03:30:58.861Z,19.86
2022-08-22T03:33:27.458Z,19.79
2022-08-22T03:36:03.641Z,19.74
2022-08-22T03:38:30.181Z,19.83
2022-08-22T03:41:08.903Z,19.68
2022-08-22T03:43:53.961Z,19.70
2022-08-22T03:46:39.190Z,19.66
2022-08-22T03:49:06.047Z,19.75
2022-08-22T03:52:02.218Z,20.20
2022-08-22T03:54:47.910Z,19.58
2022-08-22T03:57:33.228Z,19.63
2022-08-22T04:00:05.680Z,19.32
2022-08-22T04:02:50.749Z,19.60
2022-08-22T04:05:24.920Z,19.37
2022-08-22T04:08:13.011Z,19.32
2022-08-22T04:10:51.624Z,19.22
2022-08-22T04:13:21.750Z,19.23
2022-08-22T04:16:10.691Z,19.17
2022-08-22T04:19:00.625Z,19.21
2022-08-22T04:21:27.211Z,19.52
2022-08-22T04:24:12.909Z,19.22
2022-08-22T04:26:48.954Z,19.35
2022-08-22T04:29:19.509Z,19.17
2022-08-22T04:31:57.385Z,18.99
2022-08-22T04:34:42.774Z,19.02
2022-08-22T04:37:41.766Z,19.66
2022-08-22T04:40:11.426Z,18.88
2022-08-22T04:42:41.783Z,18.77
2022-08-22T04:45:18.248Z,18.90
2022-08-22T04:48:03.520Z,18.78
2022-08-22T04:50:33.870Z,18.11
2022-08-22T04:53:06.587Z,18.43
2022-08-22T04:55:33.122Z,18.48
2022-08-22T04:58:16.279Z,18.37
2022-08-22T05:01:00.810Z,17.87
2022-08-22T05:03:28.810Z,18.08
2022-08-22T05:05:57.694Z,18.34
2022-08-22T05:08:27.061Z,18.32
2022-08-22T05:10:54.529Z,18.23
2022-08-22T05:13:30.184Z,18.23
2022-08-22T05:15:59.382Z,18.30
2022-08-22T05:18:29.821Z,18.25
2022-08-22T05:20:59.095Z,18.39
2022-08-22T05:23:25.646Z,18.36
2022-08-22T05:25:54.407Z,18.59
2022-08-22T05:28:37.261Z,18.72
2022-08-22T05:31:06.269Z,19.22
2022-08-22T05:33:36.990Z,19.19
2022-08-22T05:36:26.863Z,19.19
2022-08-22T05:38:56.450Z,19.44
2022-08-22T05:41:26.053Z,19.40
2022-08-22T05:43:53.762Z,19.65
2022-08-22T05:46:27.055Z,19.66
2022-08-22T05:48:59.813Z,20.19
2022-08-22T05:51:33.338Z,19.77
2022-08-22T05:54:06.270Z,19.18
2022-08-22T05:56:45.778Z,19.06
2022-08-22T05:59:23.605Z,19.48
2022-08-22T06:01:59.064Z,19.63
2022-08-22T06:04:31.414Z,19.68
2022-08-22T06:07:09.865Z,19.72
2022-08-22T06:10:04.769Z,20.31
2022-08-22T06:12:35.694Z,20.15
2022-08-22T06:15:02.539Z,20.15
2022-08-22T06:17:42.495Z,20.07
2022-08-22T06:20:11.504Z,20.16
2022-08-22T06:22:43.878Z,19.78
2022-08-22T06:25:15.869Z,19.84
2022-08-22T06:27:43.649Z,19.78
2022-08-22T06:30:13.292Z,19.86
2022-08-22T06:32:59.140Z,19.58
2022-08-22T06:35:56.082Z,19.62
2022-08-22T06:38:29.470Z,19.88
2022-08-22T06:40:58.017Z,19.84
2022-08-22T06:43:25.029Z,19.28
2022-08-22T06:45:53.241Z,19.09
2022-08-22T06:48:21.910Z,19.25
2022-08-22T06:50:52.462Z,18.99
2022-08-22T06:53:23.310Z,19.31
2022-08-22T06:55:52.194Z,19.80
2022-08-22T06:58:21.785Z,19.94
2022-08-22T07:01:05.676Z,19.84
2022-08-22T07:03:44.878Z,20.21
2022-08-22T07:06:15.791Z,19.55
2022-08-22T07:08:42.509Z,20.17
2022-08-22T07:11:17.574Z,20.31
2022-08-22T07:13:49.345Z,19.88
2022-08-22T07:16:15.863Z,19.90
2022-08-22T07:18:47.018Z,19.76
2022-08-22T07:21:22.702Z,20.24
2022-08-22T07:23:50.059Z,20.08
2022-08-22T07:26:21.650Z,19.78
2022-08-22T07:28:51.155Z,20.19
2022-08-22T07:31:38.223Z,19.91
2022-08-22T07:34:17.110Z,19.86
2022-08-22T07:37:01.621Z,20.07
2022-08-22T07:39:35.646Z,19.98
2022-08-22T07:42:09.674Z,20.12
2022-08-22T07:44:44.670Z,20.35
2022-08-22T07:47:18.841Z,20.07
2022-08-22T07:49:56.572Z,20.51
2022-08-22T07:52:24.634Z,20.44
2022-08-22T07:54:51.095Z,20.54
2022-08-22T07:57:22.765Z,20.67
2022-08-22T07:59:52.497Z,20.65
2022-08-22T08:02:20.394Z,20.66
2022-08-22T08:04:48.738Z,20.59
2022-08-22T08:07:17.833Z,20.45
2022-08-22T08:09:46.352Z,21.06
2022-08-22T08:12:13.644Z,21.12
2022-08-22T08:14:41.663Z,20.90
2022-08-22T08:17:37.979Z,20.25
2022-08-22T08:20:15.073Z,20.79
2022-08-22T08:22:44.196Z,20.77
2022-08-22T08:25:15.579Z,21.14
2022-08-22T08:28:00.893Z,21.56
2022-08-22T08:30:46.662Z,21.82
2022-08-22T08:33:26.173Z,20.88
2022-08-22T08:36:02.996Z,21.29
2022-08-22T08:38:32.757Z,20.65
2022-08-22T08:41:02.008Z,20.66
2022-08-22T08:43:43.865Z,21.39
2022-08-22T08:46:29.169Z,21.48
2022-08-22T08:48:55.629Z,21.94
2022-08-22T08:51:33.558Z,21.64
2022-08-22T08:54:18.613Z,21.16
2022-08-22T08:57:05.677Z,21.26
2022-08-22T08:59:44.818Z,21.78
2022-08-22T09:02:33.057Z,20.84
2022-08-22T09:05:01.650Z,21.12
2022-08-22T09:07:45.758Z,20.98
2022-08-22T09:10:33.094Z,21.04
2022-08-22T09:13:11.544Z,21.03
2022-08-22T09:15:58.527Z,21.32
2022-08-22T09:18:50.105Z,21.43
2022-08-22T09:21:30.563Z,21.78
2022-08-22T09:24:16.657Z,21.35
2022-08-22T09:26:57.094Z,21.24
2022-08-22T09:29:51.398Z,21.16
2022-08-22T09:32:44.407Z,21.90
2022-08-22T09:35:13.709Z,21.64
2022-08-22T09:37:58.119Z,21.67
2022-08-22T09:40:29.241Z,21.58
2022-08-22T09:43:08.772Z,21.64
2022-08-22T09:45:41.213Z,21.80
2022-08-22T09:48:23.796Z,22.34
2022-08-22T09:51:32.702Z,22.43
2022-08-22T09:54:09.769Z,22.91
2022-08-22T09:56:48.194Z,22.37
2022-08-22T09:59:22.819Z,23.29
2022-08-22T10:02:01.372Z,22.33
2022-08-22T10:04:42.568Z,22.83
2022-08-22T10:07:32.197Z,22.97
2022-08-22T10:10:14.102Z,23.33
2022-08-22T10:12:44.824Z,23.72
2022-08-22T10:15:20.235Z,23.36
2022-08-22T10:18:02.963Z,23.42
2022-08-22T10:20:34.067Z,23.75
2022-08-22T10:23:09.524Z,23.95
2022-08-22T10:25:48.515Z,24.07
2022-08-22T10:28:18.595Z,23.90
2022-08-22T10:30:48.490Z,24.03
2022-08-22T10:33:33.820Z,24.58
2022-08-22T10:36:07.822Z,24.85
2022-08-22T10:38:48.734Z,24.27
2022-08-22T10:41:29.027Z,24.42
2022-08-22T10:44:15.782Z,24.83
2022-08-22T10:47:06.834Z,25.07
2022-08-22T10:49:51.168Z,25.74
2022-08-22T10:52:38.145Z,25.23
2022-08-22T10:55:09.906Z,25.09
2022-08-22T10:57:55.343Z,25.40
2022-08-22T11:00:38.408Z,24.99
2022-08-22T11:03:31.379Z,25.64
2022-08-22T11:06:06.694Z,25.77
2022-08-22T11:08:42.832Z,25.72
2022-08-22T11:11:12.779Z,24.77
2022-08-22T11:13:58.290Z,24.11
2022-08-22T11:16:42.141Z,23.75
2022-08-22T11:19:21.137Z,25.13
2022-08-22T11:22:00.439Z,25.46
2022-08-22T11:24:30.010Z,25.20
2022-08-22T11:27:17.600Z,25.35
2022-08-22T11:29:58.871Z,25.61
2022-08-22T11:32:46.499Z,25.61
2022-08-22T11:35:20.279Z,25.31
2022-08-22T11:38:00.713Z,25.85
2022-08-22T11:40:44.762Z,25.83
2022-08-22T11:43:20.218Z,25.93
2022-08-22T11:45:49.027Z,25.50
2022-08-22T11:48:15.565Z,24.89
2022-08-22T11:50:48.584Z,25.95
2022-08-22T11:53:27.341Z,25.74
2022-08-22T11:55:59.817Z,25.90
2022-08-22T11:58:41.056Z,26.22
2022-08-22T12:01:34.159Z,26.24
2022-08-22T12:04:01.050Z,26.09
2022-08-22T12:06:30.097Z,25.55
2022-08-22T12:08:56.586Z,25.30
2022-08-22T12:11:45.987Z,25.10
2022-08-22T12:14:26.902Z,25.59
2022-08-22T12:17:05.890Z,25.72
2022-08-22T12:20:14.990Z,25.21
2022-08-22T12:22:54.044Z,24.93
2022-08-22T12:25:29.689Z,25.32
2022-08-22T12:28:15.851Z,25.86
2022-08-22T12:30:42.411Z,25.89
2022-08-22T12:33:41.284Z,25.97
2022-08-22T12:36:43.401Z,26.13
2022-08-22T12:39:25.143Z,26.32
2022-08-22T12:42:10.243Z,25.81
2022-08-22T12:45:07.388Z,26.03
2022-08-22T12:47:36.755Z,25.75
2022-08-22T12:50:32.057Z,25.21
2022-08-22T12:53:10.625Z,25.48
2022-08-22T12:55:55.567Z,25.91
2022-08-22T12:58:40.870Z,25.58
2022-08-22T13:01:08.628Z,25.72
2022-08-22T13:03:37.778Z,25.25
2022-08-22T13:06:07.647Z,25.61
2022-08-22T13:08:43.970Z,25.06
2022-08-22T13:11:15.084Z,25.05
2022-08-22T13:13:56.378Z,24.42
2022-08-22T13:16:24.883Z,25.01
2022-08-22T13:18:54.179Z,24.26
2022-08-22T13:21:26.731Z,24.24
2022-08-22T13:23:59.886Z,24.26
2022-08-22T13:26:32.977Z,24.11
2022-08-22T13:29:24.523Z,24.23
2022-08-22T13:31:53.628Z,23.96
2022-08-22T13:34:44.826Z,24.17
2022-08-22T13:37:16.039Z,24.00
2022-08-22T13:39:45.024Z,24.41
2022-08-22T13:42:30.169Z,23.57
2022-08-22T13:44:59.194Z,23.44
2022-08-22T13:47:26.994Z,23.75
2022-08-22T13:50:04.344Z,23.75
2022-08-22T13:52:39.097Z,23.74
2022-08-22T13:55:12.167Z,24.16
2022-08-22T13:57:42.266Z,23.52
2022-08-22T14:00:11.142Z,23.24
2022-08-22T14:02:43.443Z,23.70
2022-08-22T14:05:16.088Z,23.10
2022-08-22T14:07:56.599Z,23.21
2022-08-22T14:10:28.270Z,23.47
2022-08-22T14:12:54.768Z,23.26
2022-08-22T14:15:44.986Z,22.63
2022-08-22T14:18:19.778Z,23.25
2022-08-22T14:20:47.622Z,23.46
2022-08-22T14:23:18.769Z,23.67
2022-08-22T14:25:45.344Z,22.90
2022-08-22T14:28:27.590Z,23.12
2022-08-22T14:31:01.878Z,23.02
2022-08-22T14:33:35.185Z,22.76
2022-08-22T14:36:04.413Z,23.26
2022-08-22T14:38:35.198Z,22.96
2022-08-22T14:41:13.446Z,23.42
2022-08-22T14:43:49.751Z,23.17
2022-08-22T14:46:26.951Z,23.18
2022-08-22T14:49:14.085Z,23.40
2022-08-22T14:51:55.995Z,23.39
2022-08-22T14:54:28.982Z,23.44
2022-08-22T14:56:57.180Z,23.33
2022-08-22T14:59:32.834Z,22.97
2022-08-22T15:02:05.961Z,22.96
2022-08-22T15:04:38.037Z,22.92
2022-08-22T15:07:05.415Z,22.87
2022-08-22T15:09:31.986Z,23.03
2022-08-22T15:11:59.383Z,22.87
2022-08-22T15:14:37.553Z,23.02
2022-08-22T15:17:05.707Z,22.87
2022-08-22T15:19:41.452Z,22.55
2022-08-22T15:22:21.872Z,22.90
2022-08-22T15:25:04.861Z,23.34
2022-08-22T15:27:33.431Z,23.14
2022-08-22T15:30:02.557Z,22.91
2022-08-22T15:32:30.474Z,22.65
2022-08-22T15:35:09.382Z,22.42
2022-08-22T15:37:56.154Z,21.96
2022-08-22T15:40:28.768Z,22.47
2022-08-22T15:42:58.256Z,22.55
2022-08-22T15:45:34.027Z,21.83
2022-08-22T15:48:04.531Z,22.23
2022-08-22T15:50:39.890Z,22.28
2022-08-22T15:53:08.578Z,21.87
2022-08-22T15:55:36.699Z,22.67
2022-08-22T15:58:06.562Z,22.57
2022-08-22T16:00:35.952Z,22.73
2022-08-22T16:03:31.123Z,22.60
2022-08-22T16:05:59.036Z,22.42
2022-08-22T16:08:44.369Z,22.43
2022-08-22T16:11:33.064Z,22.76
2022-08-22T16:14:17.364Z,22.46
2022-08-22T16:16:44.972Z,22.70
2022-08-22T16:19:16.836Z,22.65
2022-08-22T16:21:43.325Z,22.62
2022-08-22T16:24:09.768Z,22.75
2022-08-22T16:26:41.365Z,22.35
2022-08-22T16:29:17.290Z,21.96
2022-08-22T16:31:44.612Z,22.33
2022-08-22T16:34:17.248Z,22.58
2022-08-22T16:36:55.758Z,22.29
2022-08-22T16:39:22.236Z,22.52
2022-08-22T16:41:54.260Z,22.36
2022-08-22T16:44:20.777Z,22.69
2022-08-22T16:46:48.565Z,22.74
2022-08-22T16:49:35.276Z,22.57
2022-08-22T16:52:20.889Z,22.65
2022-08-22T16:54:48.777Z,22.55
2022-08-22T16:57:24.173Z,22.64
2022-08-22T17:00:00.610Z,23.02
2022-08-22T17:02:33.364Z,22.72
2022-08-22T17:04:59.903Z,22.47
2022-08-22T17:07:26.443Z,22.37
2022-08-22T17:10:12.187Z,21.75
2022-08-22T17:12:47.157Z,22.14
2022-08-22T17:15:20.482Z,21.87
2022-08-22T17:18:12.151Z,21.65
2022-08-22T17:20:51.258Z,22.01
2022-08-22T17:23:36.596Z,22.06
2022-08-22T17:26:32.337Z,22.30
2022-08-22T17:29:25.282Z,22.45
2022-08-22T17:32:10.197Z,22.16
2022-08-22T17:34:59.367Z,22.24
2022-08-22T17:37:35.951Z,22.11
2022-08-22T17:40:21.510Z,22.33
2022-08-22T17:43:04.143Z,21.68
2022-08-22T17:45:33.442Z,21.92
2022-08-22T17:48:08.974Z,21.89
2022-08-22T17:50:42.616Z,21.66
2022-08-22T17:53:11.826Z,21.87
2022-08-22T17:55:55.381Z,21.66
2022-08-22T17:58:37.596Z,22.13
2022-08-22T18:01:13.874Z,22.33
2022-08-22T18:03:43.480Z,21.84
2022-08-22T18:06:09.921Z,21.67
2022-08-22T18:09:18.310Z,21.73
2022-08-22T18:11:49.905Z,21.41
2022-08-22T18:14:28.401Z,22.05
2022-08-22T18:16:59.023Z,21.69
2022-08-22T18:19:37.761Z,21.82
2022-08-22T18:22:09.505Z,21.96
2022-08-22T18:24:43.347Z,21.91
2022-08-22T18:27:30.032Z,21.83
2022-08-22T18:30:01.969Z,21.81
2022-08-22T18:32:38.796Z,21.74
2022-08-22T18:35:40.793Z,21.79
2022-08-22T18:38:19.528Z,21.82
2022-08-22T18:40:50.387Z,21.74
2022-08-22T18:43:25.995Z,21.89
2022-08-22T18:45:52.482Z,22.31
2022-08-22T18:48:49.460Z,21.90
2022-08-22T18:51:24.851Z,21.62
2022-08-22T18:53:51.570Z,21.39
2022-08-22T18:56:20.870Z,21.55
2022-08-22T18:59:05.311Z,21.60
2022-08-22T19:01:42.192Z,21.56
2022-08-22T19:04:17.419Z,21.42
2022-08-22T19:07:10.133Z,21.62
2022-08-22T19:09:42.994Z,21.48
2022-08-22T19:12:18.346Z,21.70
2022-08-22T19:14:47.605Z,21.73
2022-08-22T19:17:22.711Z,21.51
2022-08-22T19:20:14.579Z,21.54
2022-08-22T19:22:41.171Z,21.31
2022-08-22T19:25:15.294Z,21.60
2022-08-22T19:27:46.953Z,21.74
2022-08-22T19:30:52.061Z,21.63
2022-08-22T19:33:34.598Z,21.58
2022-08-22T19:36:04.446Z,21.49
2022-08-22T19:38:51.286Z,21.47
2022-08-22T19:41:36.433Z,21.32
2022-08-22T19:44:03.820Z,21.42
2022-08-22T19:46:38.132Z,21.08
2022-08-22T19:49:06.385Z,21.30
2022-08-22T19:51:33.695Z,21.04
2022-08-22T19:54:22.254Z,21.09
2022-08-22T19:57:10.052Z,20.88
2022-08-22T20:00:00.257Z,20.78
2022-08-22T20:02:27.129Z,20.81
2022-08-22T20:05:03.476Z,21.08
2022-08-22T20:07:42.331Z,20.81
2022-08-22T20:10:08.804Z,20.74
2022-08-22T20:12:55.577Z,21.11
2022-08-22T20:15:24.454Z,21.19
2022-08-22T20:20:54.987Z,20.62
2022-08-22T20:23:30.009Z,20.79
2022-08-22T20:25:57.737Z,20.67
2022-08-22T20:28:27.280Z,20.38
2022-08-22T20:30:57.542Z,20.49
2022-08-22T20:33:26.735Z,20.76
2022-08-22T20:36:01.462Z,20.54
2022-08-22T20:38:39.474Z,20.68
2022-08-22T20:41:14.287Z,20.78
2022-08-22T20:43:47.294Z,20.58
2022-08-22T20:46:32.677Z,20.86
2022-08-22T20:49:00.823Z,20.78
2022-08-22T20:51:29.656Z,20.80
2022-08-22T20:53:57.692Z,20.97
2022-08-22T20:56:34.620Z,20.76
2022-08-22T20:59:12.584Z,20.77
2022-08-22T21:01:39.231Z,20.72
2022-08-22T21:04:05.841Z,20.74
2022-08-22T21:06:34.874Z,20.75
2022-08-22T21:09:31.444Z,20.72
2022-08-22T21:11:58.861Z,20.67
2022-08-22T21:14:27.009Z,20.83
2022-08-22T21:16:53.626Z,20.87
2022-08-22T21:19:24.306Z,20.99
2022-08-22T21:21:50.858Z,20.88
2022-08-22T21:24:17.800Z,20.96
2022-08-22T21:26:47.327Z,20.89
2022-08-22T21:29:13.841Z,20.80
2022-08-22T21:31:52.329Z,20.81
2022-08-22T21:34:23.828Z,20.50
2022-08-22T21:36:57.839Z,20.43
2022-08-22T21:39:44.674Z,20.42
2022-08-22T21:42:12.645Z,20.70
2022-08-22T21:44:39.123Z,20.63
2022-08-22T21:47:30.627Z,20.71
2022-08-22T21:50:04.129Z,20.73
2022-08-22T21:52:32.406Z,20.63
2022-08-22T21:55:14.378Z,20.66
2022-08-22T21:57:40.854Z,20.70
2022-08-22T22:00:30.998Z,20.68
2022-08-22T22:03:03.591Z,20.78
2022-08-22T22:05:33.874Z,20.69
2022-08-22T22:08:00.690Z,20.63
2022-08-22T22:10:27.467Z,20.77
2022-08-22T22:12:55.563Z,20.79
2022-08-22T22:15:23.966Z,20.82
2022-08-22T22:17:50.466Z,20.67
2022-08-22T22:20:17.865Z,20.75
2022-08-22T22:22:45.977Z,20.78
2022-08-22T22:25:38.881Z,20.90
2022-08-22T22:28:02.837Z,20.79
2022-08-22T22:30:29.561Z,20.75
2022-08-22T22:32:56.042Z,20.85
2022-08-22T22:35:22.534Z,20.94
2022-08-22T22:37:49.134Z,20.84
2022-08-22T22:40:15.746Z,20.80
2022-08-22T22:42:42.721Z,20.83
2022-08-22T22:45:10.689Z,20.79
2022-08-22T22:47:38.076Z,20.79
2022-08-22T22:50:05.580Z,20.79
2022-08-22T22:52:32.121Z,20.78
2022-08-22T22:54:58.692Z,20.84
2022-08-22T22:57:25.835Z,20.73
2022-08-22T22:59:52.386Z,20.59
2022-08-22T23:02:21.397Z,20.57
2022-08-22T23:04:50.872Z,20.39
2022-08-22T23:07:18.465Z,20.37
2022-08-22T23:09:46.409Z,20.32
2022-08-22T23:12:14.002Z,20.06
2022-08-22T23:14:40.543Z,19.87
2022-08-22T23:17:07.062Z,19.71
2022-08-22T23:19:33.761Z,19.73
2022-08-22T23:22:00.978Z,19.72
2022-08-22T23:24:28.402Z,19.33
2022-08-22T23:26:55.434Z,19.23
2022-08-22T23:29:21.941Z,19.85
2022-08-22T23:31:50.197Z,20.19
2022-08-22T23:34:22.680Z,19.67
2022-08-22T23:36:50.049Z,19.74
2022-08-22T23:39:17.218Z,19.49
2022-08-22T23:41:44.937Z,19.05
2022-08-22T23:44:14.281Z,18.67
2022-08-22T23:46:41.641Z,18.56
2022-08-22T23:49:08.303Z,18.76
2022-08-22T23:51:34.892Z,19.43
2022-08-22T23:54:01.967Z,19.25
2022-08-22T23:56:30.816Z,19.20
2022-08-22T23:58:59.021Z,19.23
